Jolyn — PJWG — position and weather

sailwx.info

Track history (hours):
 
Tides and Currents Weather Stations Pressure Air Temp Water Temp Dewpoint Dewpoint Depression Visibility Wind Speed Wind Dir Waves Ship Positions

Jolyn

Last reported at 2014-Sep-01 18:14 UTC. Time now 2014-Sep-01 18:36 UTC.
Position N 38°31' E 025°24'.

Length 89 m; draft 4.4 m.

Type: Cargo ship. MMSI: 306813000.

Date/timePositionNaut miles runAvg speedWind from/ knotsBaromVisibWave heightAir tempDewpointWater temp
2014-Sep-01 18:14N 38°31' E 025°24'6 8.8
2014-Sep-01 17:33N 38°38' E 025°24'9 8.9
2014-Sep-01 16:33N 38°46' E 025°27'9 8.9
2014-Sep-01 15:33N 38°55' E 025°29'9 8.9
2014-Sep-01 14:31N 39°04' E 025°32'54 8.7
2014-Sep-01 08:16N 39°56' E 025°53'143 9.1
2014-Aug-31 16:33N 40°46' E 028°48'9 9.5
2014-Aug-31 15:33N 40°45' E 029°00'10 9.5
2014-Aug-31 14:33N 40°45' E 029°13'11 9.4
2014-Aug-31 13:25N 40°45' E 029°27'9 9.0
2014-Aug-31 12:22N 40°45' E 029°39'  
2014-Aug-27 19:32N 40°45' E 029°30'9 8.7
2014-Aug-27 18:33N 40°43' E 029°19'10 9.7
2014-Aug-27 17:33N 40°43' E 029°06'10 9.9
2014-Aug-27 16:33N 40°39' E 028°54'9 9.0
2014-Aug-27 15:33N 40°33' E 028°45'16 8.1
2014-Aug-27 13:33N 40°25' E 029°04'0 0.1
2014-Aug-27 07:29N 40°25' E 029°05'1 1.3
2014-Aug-27 06:24N 40°26' E 029°03'0 0.4
2014-Aug-27 05:31N 40°26' E 029°03'10010.0
2014-Aug-26 19:29N 40°28' E 026°51'1410.0
2014-Aug-26 18:04N 40°19' E 026°36'184 9.0
2014-Aug-25 21:32N 37°47' E 024°23'2310.2
2014-Aug-25 19:18N 37°36' E 023°57'810.7
2014-Aug-25 18:33N 37°38' E 023°48'1010.1
2014-Aug-25 17:33N 37°45' E 023°39'1110.7
2014-Aug-25 16:34N 37°56' E 023°36'7 7.1
2014-Aug-25 15:33N 38°02' E 023°32'0 0.0
2014-Aug-25 14:33N 38°02' E 023°32'0 0.0
2014-Aug-25 13:33N 38°02' E 023°32'0 0.0
2014-Aug-25 12:33N 38°02' E 023°32'0 0.0
2014-Aug-25 11:30N 38°02' E 023°32'0 0.0
2014-Aug-25 10:33N 38°02' E 023°32'0 0.0
2014-Aug-25 09:30N 38°02' E 023°32'0 0.0
2014-Aug-25 08:33N 38°02' E 023°32'5 1.7
2014-Aug-25 05:33N 37°57' E 023°34'4 3.8
2014-Aug-25 04:33N 37°54' E 023°36'2 2.3
2014-Aug-25 03:33N 37°52' E 023°39'9 8.5
2014-Aug-25 02:33N 37°45' E 023°43'7 7.5
2014-Aug-25 01:33N 37°37' E 023°45'8 8.1
2014-Aug-25 00:32N 37°29' E 023°42'8 8.2
2014-Aug-24 23:32N 37°22' E 023°37'8 8.2
2014-Aug-24 22:33N 37°15' E 023°33'9 8.9
2014-Aug-24 21:33N 37°07' E 023°28'9 8.9
2014-Aug-24 20:33N 36°59' E 023°23'11 9.2
2014-Aug-24 19:21N 36°48' E 023°20'7 9.3
2014-Aug-24 18:33N 36°41' E 023°18'10 9.4
2014-Aug-24 17:31N 36°31' E 023°15'  
Track history (hours):
 
Tides and Currents Weather Stations Pressure Air Temp Water Temp Dewpoint Dewpoint Depression Visibility Wind Speed Wind Dir Waves Ship Positions

Jolyn

Last reported at 2014-Sep-01 18:14 UTC. Time now 2014-Sep-01 18:36 UTC.
Position N 38°31' E 025°24'.

Length 89 m; draft 4.4 m.

Type: Cargo ship. MMSI: 306813000.

Date/timePositionNaut miles runAvg speedWind from/ knotsBaromVisibWave heightAir tempDewpointWater temp
2014-Sep-01 18:14N 38°31' E 025°24'6 8.8
2014-Sep-01 17:33N 38°38' E 025°24'9 8.9
2014-Sep-01 16:33N 38°46' E 025°27'9 8.9
2014-Sep-01 15:33N 38°55' E 025°29'9 8.9
2014-Sep-01 14:31N 39°04' E 025°32'54 8.7
2014-Sep-01 08:16N 39°56' E 025°53'143 9.1
2014-Aug-31 16:33N 40°46' E 028°48'9 9.5
2014-Aug-31 15:33N 40°45' E 029°00'10 9.5
2014-Aug-31 14:33N 40°45' E 029°13'11 9.4
2014-Aug-31 13:25N 40°45' E 029°27'9 9.0
2014-Aug-31 12:22N 40°45' E 029°39'  
2014-Aug-27 19:32N 40°45' E 029°30'9 8.7
2014-Aug-27 18:33N 40°43' E 029°19'10 9.7
2014-Aug-27 17:33N 40°43' E 029°06'10 9.9
2014-Aug-27 16:33N 40°39' E 028°54'9 9.0
2014-Aug-27 15:33N 40°33' E 028°45'16 8.1
2014-Aug-27 13:33N 40°25' E 029°04'0 0.1
2014-Aug-27 07:29N 40°25' E 029°05'1 1.3
2014-Aug-27 06:24N 40°26' E 029°03'0 0.4
2014-Aug-27 05:31N 40°26' E 029°03'10010.0
2014-Aug-26 19:29N 40°28' E 026°51'1410.0
2014-Aug-26 18:04N 40°19' E 026°36'184 9.0
2014-Aug-25 21:32N 37°47' E 024°23'2310.2
2014-Aug-25 19:18N 37°36' E 023°57'810.7
2014-Aug-25 18:33N 37°38' E 023°48'1010.1
2014-Aug-25 17:33N 37°45' E 023°39'1110.7
2014-Aug-25 16:34N 37°56' E 023°36'7 7.1
2014-Aug-25 15:33N 38°02' E 023°32'0 0.0
2014-Aug-25 14:33N 38°02' E 023°32'0 0.0
2014-Aug-25 13:33N 38°02' E 023°32'0 0.0
2014-Aug-25 12:33N 38°02' E 023°32'0 0.0
2014-Aug-25 11:30N 38°02' E 023°32'0 0.0
2014-Aug-25 10:33N 38°02' E 023°32'0 0.0
2014-Aug-25 09:30N 38°02' E 023°32'0 0.0
2014-Aug-25 08:33N 38°02' E 023°32'5 1.7
2014-Aug-25 05:33N 37°57' E 023°34'4 3.8
2014-Aug-25 04:33N 37°54' E 023°36'2 2.3
2014-Aug-25 03:33N 37°52' E 023°39'9 8.5
2014-Aug-25 02:33N 37°45' E 023°43'7 7.5
2014-Aug-25 01:33N 37°37' E 023°45'8 8.1
2014-Aug-25 00:32N 37°29' E 023°42'8 8.2
2014-Aug-24 23:32N 37°22' E 023°37'8 8.2
2014-Aug-24 22:33N 37°15' E 023°33'9 8.9
2014-Aug-24 21:33N 37°07' E 023°28'9 8.9
2014-Aug-24 20:33N 36°59' E 023°23'11 9.2
2014-Aug-24 19:21N 36°48' E 023°20'7 9.3
2014-Aug-24 18:33N 36°41' E 023°18'10 9.4
2014-Aug-24 17:31N 36°31' E 023°15'  

Dump ship's entire track history